DHL1111 VHHX-RJTT
Flight info
| Callsign | DHL1111 |
|---|---|
| Flight time | 3h 47m |
| Altitude | 35000 |
| Route | ELATO A1 APU G587 LEKOS M750 MADOG Y753 JAKAL A1 KEC V52 SHIMA Y12 KOHWA Y33 SHOOT XAC |
| Aircraft | B77L/H-SDE1E2E3FGHIJ2J3J4J5M1RWXY/LB1D1 |
Departure
| Time | 2026-04-30 18:28 |
|---|---|
| Airport | Hong Kong International Airport Kai Tak (VHHX) |
Arrival
| Time | 2026-04-30 22:16 |
|---|---|
| Airport | Tokyo Haneda International Airport (RJTT) |
| Time | Latitude | Longitude | Altitude | Speed | Heading |
|---|---|---|---|---|---|
| 2026-04-30 18:07 | 22.32616 | 114.19808 | 35 ft | 0 kts | 95° |
| 2026-04-30 18:22 | 22.32617 | 114.19801 | 34 ft | 2 kts | 95° |
| 2026-04-30 18:22 | 22.32618 | 114.19785 | 34 ft | 2 kts | 95° |
| 2026-04-30 18:23 | 22.32620 | 114.19769 | 34 ft | 2 kts | 108° |
| 2026-04-30 18:23 | 22.32627 | 114.19755 | 34 ft | 2 kts | 132° |
| 2026-04-30 18:23 | 22.32638 | 114.19745 | 34 ft | 2 kts | 152° |
| 2026-04-30 18:23 | 22.32652 | 114.19739 | 34 ft | 2 kts | 173° |
| 2026-04-30 18:24 | 22.32681 | 114.19746 | 34 ft | 2 kts | 215° |
| 2026-04-30 18:24 | 22.32687 | 114.19751 | 34 ft | 1 kts | 225° |
| 2026-04-30 18:24 | 22.32689 | 114.19752 | 34 ft | 0 kts | 225° |
| 2026-04-30 18:26 | 22.32581 | 114.19637 | 34 ft | 18 kts | 225° |
| 2026-04-30 18:26 | 22.32495 | 114.19545 | 34 ft | 16 kts | 225° |
| 2026-04-30 18:26 | 22.32409 | 114.19476 | 34 ft | 14 kts | 206° |
| 2026-04-30 18:27 | 22.32299 | 114.19488 | 34 ft | 5 kts | 133° |
| 2026-04-30 18:27 | 22.32178 | 114.19623 | 34 ft | 61 kts | 134° |
| 2026-04-30 18:28 | 22.30853 | 114.21101 | 293 ft | 184 kts | 131° |
| 2026-04-30 18:28 | 22.29989 | 114.22084 | 1228 ft | 188 kts | 130° |
| 2026-04-30 18:28 | 22.28115 | 114.24185 | 2166 ft | 211 kts | 131° |
| 2026-04-30 18:29 | 22.27047 | 114.25375 | 2585 ft | 229 kts | 131° |
| 2026-04-30 18:29 | 22.23411 | 114.29430 | 4389 ft | 267 kts | 133° |
| 2026-04-30 18:30 | 22.21264 | 114.32748 | 5763 ft | 282 kts | 107° |
| 2026-04-30 18:30 | 22.20256 | 114.36915 | 7175 ft | 294 kts | 105° |
| 2026-04-30 18:31 | 22.19752 | 114.39062 | 7858 ft | 298 kts | 105° |
| 2026-04-30 18:31 | 22.18727 | 114.43428 | 9162 ft | 308 kts | 105° |
| 2026-04-30 18:32 | 22.17660 | 114.47968 | 10390 ft | 321 kts | 105° |
| 2026-04-30 18:32 | 22.17098 | 114.50356 | 10743 ft | 337 kts | 105° |
| 2026-04-30 18:32 | 22.15888 | 114.55488 | 11516 ft | 368 kts | 105° |
| 2026-04-30 18:33 | 22.15247 | 114.58207 | 11906 ft | 383 kts | 105° |
| 2026-04-30 18:33 | 22.13885 | 114.63974 | 12768 ft | 408 kts | 105° |
| 2026-04-30 18:33 | 22.13186 | 114.66931 | 13426 ft | 412 kts | 105° |
| 2026-04-30 18:34 | 22.12470 | 114.69958 | 14091 ft | 417 kts | 105° |
| 2026-04-30 18:34 | 22.11027 | 114.76051 | 15378 ft | 424 kts | 105° |
| 2026-04-30 18:34 | 22.10301 | 114.79113 | 15988 ft | 429 kts | 105° |
| 2026-04-30 18:35 | 22.09551 | 114.82274 | 16552 ft | 434 kts | 105° |
| 2026-04-30 18:35 | 22.08806 | 114.85412 | 17177 ft | 437 kts | 105° |
| 2026-04-30 18:35 | 22.08053 | 114.88580 | 17787 ft | 440 kts | 105° |
| 2026-04-30 18:36 | 22.06515 | 114.95041 | 18871 ft | 449 kts | 105° |
| 2026-04-30 18:36 | 22.05743 | 114.98279 | 19429 ft | 452 kts | 105° |
| 2026-04-30 18:36 | 22.04172 | 115.04859 | 20551 ft | 458 kts | 105° |
| 2026-04-30 18:37 | 22.03368 | 115.08225 | 21074 ft | 462 kts | 106° |
| 2026-04-30 18:37 | 22.02569 | 115.11563 | 21577 ft | 465 kts | 106° |
| 2026-04-30 18:37 | 22.01753 | 115.14969 | 22069 ft | 469 kts | 106° |
| 2026-04-30 18:37 | 22.00941 | 115.18356 | 22540 ft | 473 kts | 106° |
| 2026-04-30 18:38 | 22.00121 | 115.21774 | 23009 ft | 477 kts | 106° |
| 2026-04-30 18:38 | 21.99282 | 115.25266 | 23464 ft | 480 kts | 106° |
| 2026-04-30 18:38 | 21.98446 | 115.28744 | 23905 ft | 484 kts | 106° |
| 2026-04-30 18:38 | 21.97602 | 115.32252 | 24401 ft | 487 kts | 106° |
| 2026-04-30 18:39 | 21.96744 | 115.35813 | 24868 ft | 491 kts | 106° |
| 2026-04-30 18:39 | 21.95887 | 115.39365 | 25305 ft | 496 kts | 106° |
| 2026-04-30 18:39 | 21.95012 | 115.42991 | 25757 ft | 500 kts | 106° |
| 2026-04-30 18:39 | 21.94136 | 115.46614 | 26238 ft | 503 kts | 106° |
| 2026-04-30 18:40 | 21.93252 | 115.50272 | 26675 ft | 508 kts | 106° |
| 2026-04-30 18:40 | 21.92359 | 115.53959 | 27090 ft | 513 kts | 106° |
| 2026-04-30 18:40 | 21.91464 | 115.57651 | 27525 ft | 517 kts | 106° |
| 2026-04-30 18:40 | 21.90553 | 115.61410 | 27996 ft | 520 kts | 106° |
| 2026-04-30 18:41 | 21.89643 | 115.65159 | 28437 ft | 524 kts | 106° |
| 2026-04-30 18:41 | 21.88716 | 115.68971 | 28839 ft | 529 kts | 106° |
| 2026-04-30 18:41 | 21.87837 | 115.72835 | 29258 ft | 534 kts | 102° |
| 2026-04-30 18:41 | 21.87409 | 115.76817 | 29851 ft | 535 kts | 92° |
| 2026-04-30 18:42 | 21.87528 | 115.80775 | 30615 ft | 531 kts | 84° |
| 2026-04-30 18:42 | 21.89148 | 115.88412 | 31994 ft | 524 kts | 73° |
| 2026-04-30 18:42 | 21.90194 | 115.92181 | 32496 ft | 524 kts | 73° |
| 2026-04-30 18:45 | 22.00630 | 116.29766 | 32976 ft | 524 kts | 72° |
| 2026-04-30 18:45 | 22.01666 | 116.33518 | 32976 ft | 523 kts | 73° |
| 2026-04-30 18:46 | 22.03725 | 116.40983 | 32978 ft | 523 kts | 72° |
| 2026-04-30 18:46 | 22.05792 | 116.48495 | 32978 ft | 523 kts | 72° |
| 2026-04-30 18:47 | 22.07855 | 116.56004 | 32977 ft | 524 kts | 72° |
| 2026-04-30 18:47 | 22.09927 | 116.63563 | 32982 ft | 522 kts | 72° |
| 2026-04-30 18:48 | 22.11976 | 116.71049 | 32970 ft | 523 kts | 73° |
| 2026-04-30 18:48 | 22.14034 | 116.78587 | 32971 ft | 525 kts | 73° |
| 2026-04-30 18:49 | 22.16086 | 116.86117 | 32973 ft | 524 kts | 73° |
| 2026-04-30 18:49 | 22.18126 | 116.93619 | 32975 ft | 524 kts | 73° |
| 2026-04-30 18:50 | 22.20176 | 117.01168 | 32974 ft | 524 kts | 73° |
| 2026-04-30 18:50 | 22.22222 | 117.08723 | 32984 ft | 523 kts | 73° |
| 2026-04-30 18:51 | 22.24256 | 117.16245 | 32990 ft | 523 kts | 73° |
| 2026-04-30 18:51 | 22.26277 | 117.23735 | 32992 ft | 522 kts | 73° |
| 2026-04-30 18:52 | 22.28300 | 117.31246 | 32991 ft | 522 kts | 73° |
| 2026-04-30 18:52 | 22.30327 | 117.38787 | 32991 ft | 523 kts | 73° |
| 2026-04-30 18:53 | 22.32386 | 117.46324 | 32980 ft | 522 kts | 69° |
| 2026-04-30 18:53 | 22.35708 | 117.53209 | 32992 ft | 519 kts | 51° |
| 2026-04-30 18:54 | 22.40156 | 117.59345 | 33002 ft | 517 kts | 49° |
| 2026-04-30 18:54 | 22.44636 | 117.65427 | 33002 ft | 517 kts | 49° |
| 2026-04-30 18:55 | 22.49110 | 117.71521 | 32991 ft | 517 kts | 49° |
| 2026-04-30 18:55 | 22.55830 | 117.80697 | 32991 ft | 517 kts | 49° |
| 2026-04-30 18:56 | 22.62508 | 117.89837 | 32991 ft | 515 kts | 49° |
| 2026-04-30 18:57 | 22.69191 | 117.99002 | 32992 ft | 516 kts | 49° |
| 2026-04-30 18:57 | 22.73656 | 118.05135 | 32993 ft | 515 kts | 49° |
| 2026-04-30 18:58 | 22.80293 | 118.14265 | 32993 ft | 516 kts | 49° |
| 2026-04-30 18:59 | 22.86983 | 118.23485 | 32995 ft | 516 kts | 49° |
| 2026-04-30 19:00 | 22.95870 | 118.35757 | 32996 ft | 517 kts | 49° |
| 2026-04-30 19:01 | 23.04746 | 118.48044 | 33000 ft | 516 kts | 49° |
| 2026-04-30 19:02 | 23.11415 | 118.57295 | 32999 ft | 516 kts | 49° |
| 2026-04-30 19:03 | 23.20244 | 118.69569 | 33005 ft | 513 kts | 49° |
| 2026-04-30 19:04 | 23.29106 | 118.81918 | 33002 ft | 516 kts | 49° |
| 2026-04-30 19:05 | 23.37914 | 118.94222 | 33004 ft | 513 kts | 49° |
| 2026-04-30 19:06 | 23.46686 | 119.06505 | 33006 ft | 514 kts | 49° |
| 2026-04-30 19:06 | 23.53279 | 119.15756 | 33003 ft | 514 kts | 49° |
| 2026-04-30 19:07 | 23.59848 | 119.24991 | 33009 ft | 513 kts | 49° |
| 2026-04-30 19:08 | 23.68575 | 119.37285 | 33012 ft | 513 kts | 49° |
| 2026-04-30 19:09 | 23.75131 | 119.46539 | 33010 ft | 513 kts | 49° |
| 2026-04-30 19:09 | 23.79484 | 119.52695 | 33013 ft | 514 kts | 49° |
| 2026-04-30 19:10 | 23.88225 | 119.65077 | 33017 ft | 513 kts | 49° |
| 2026-04-30 19:11 | 23.94712 | 119.74287 | 33006 ft | 512 kts | 49° |
| 2026-04-30 19:12 | 23.99059 | 119.80469 | 33008 ft | 512 kts | 49° |
| 2026-04-30 19:12 | 24.03407 | 119.86658 | 33013 ft | 511 kts | 49° |
| 2026-04-30 19:13 | 24.12075 | 119.99020 | 33018 ft | 513 kts | 49° |
| 2026-04-30 19:14 | 24.16400 | 120.05203 | 33018 ft | 511 kts | 49° |
| 2026-04-30 19:14 | 24.20726 | 120.11392 | 33020 ft | 512 kts | 49° |
| 2026-04-30 19:15 | 24.25084 | 120.17635 | 33020 ft | 513 kts | 49° |
| 2026-04-30 19:15 | 24.31567 | 120.26937 | 33023 ft | 513 kts | 49° |
| 2026-04-30 19:16 | 24.35904 | 120.33169 | 33026 ft | 513 kts | 49° |
| 2026-04-30 19:17 | 24.42395 | 120.42512 | 33029 ft | 512 kts | 49° |
| 2026-04-30 19:17 | 24.48857 | 120.51832 | 33031 ft | 512 kts | 49° |
| 2026-04-30 19:18 | 24.55316 | 120.61166 | 33034 ft | 513 kts | 49° |
| 2026-04-30 19:19 | 24.59642 | 120.67425 | 33022 ft | 513 kts | 49° |
| 2026-04-30 19:19 | 24.66079 | 120.76756 | 33024 ft | 513 kts | 49° |
| 2026-04-30 19:20 | 24.70399 | 120.83029 | 33031 ft | 513 kts | 49° |
| 2026-04-30 19:21 | 24.76868 | 120.92437 | 33030 ft | 514 kts | 49° |
| 2026-04-30 19:22 | 24.85487 | 121.04999 | 33040 ft | 517 kts | 49° |
| 2026-04-30 19:23 | 24.98430 | 121.23927 | 33055 ft | 514 kts | 49° |
| 2026-04-30 19:24 | 25.04912 | 121.33433 | 33066 ft | 515 kts | 49° |
| 2026-04-30 19:25 | 25.15643 | 121.49223 | 33063 ft | 516 kts | 51° |
| 2026-04-30 19:26 | 25.19041 | 121.56278 | 33085 ft | 524 kts | 65° |
| 2026-04-30 19:26 | 25.21761 | 121.63786 | 33077 ft | 524 kts | 65° |
| 2026-04-30 19:27 | 25.25776 | 121.75030 | 33065 ft | 525 kts | 66° |
| 2026-04-30 19:28 | 25.29764 | 121.86271 | 33068 ft | 524 kts | 66° |
| 2026-04-30 19:29 | 25.35080 | 122.01324 | 33074 ft | 524 kts | 66° |
| 2026-04-30 19:30 | 25.40364 | 122.16353 | 33074 ft | 526 kts | 66° |
| 2026-04-30 19:31 | 25.45431 | 122.31522 | 33072 ft | 528 kts | 68° |
| 2026-04-30 19:31 | 25.49129 | 122.42996 | 33071 ft | 529 kts | 67° |
| 2026-04-30 19:32 | 25.52493 | 122.50110 | 33068 ft | 520 kts | 50° |
| 2026-04-30 19:32 | 25.57076 | 122.56267 | 33072 ft | 518 kts | 45° |
| 2026-04-30 19:33 | 25.61758 | 122.62360 | 33076 ft | 519 kts | 45° |
| 2026-04-30 19:33 | 25.66457 | 122.68481 | 33059 ft | 519 kts | 45° |
| 2026-04-30 19:34 | 25.71122 | 122.74566 | 33063 ft | 519 kts | 46° |
| 2026-04-30 19:35 | 25.78123 | 122.83714 | 33068 ft | 519 kts | 45° |
| 2026-04-30 19:35 | 25.82826 | 122.89867 | 33068 ft | 520 kts | 46° |
| 2026-04-30 19:36 | 25.87505 | 122.96000 | 33071 ft | 519 kts | 46° |
| 2026-04-30 19:36 | 25.94524 | 123.05214 | 33076 ft | 520 kts | 46° |
| 2026-04-30 19:37 | 25.99198 | 123.11364 | 33078 ft | 521 kts | 45° |
| 2026-04-30 19:37 | 26.03862 | 123.17509 | 33078 ft | 521 kts | 45° |
| 2026-04-30 19:38 | 26.08580 | 123.23734 | 33080 ft | 523 kts | 45° |
| 2026-04-30 19:38 | 26.13259 | 123.29917 | 33080 ft | 522 kts | 45° |
| 2026-04-30 19:39 | 26.17964 | 123.36140 | 33085 ft | 522 kts | 45° |
| 2026-04-30 19:39 | 26.22652 | 123.42351 | 33081 ft | 525 kts | 45° |
| 2026-04-30 19:40 | 26.27382 | 123.48627 | 33087 ft | 523 kts | 45° |
| 2026-04-30 19:40 | 26.32059 | 123.54839 | 33086 ft | 524 kts | 45° |
| 2026-04-30 19:41 | 26.36738 | 123.61063 | 33086 ft | 524 kts | 45° |
| 2026-04-30 19:41 | 26.41421 | 123.67303 | 33070 ft | 523 kts | 46° |
| 2026-04-30 19:42 | 26.46130 | 123.73583 | 33072 ft | 526 kts | 46° |
| 2026-04-30 19:42 | 26.50832 | 123.79864 | 33073 ft | 525 kts | 45° |
| 2026-04-30 19:43 | 26.55523 | 123.86139 | 33073 ft | 527 kts | 45° |
| 2026-04-30 19:44 | 26.62572 | 123.95585 | 33074 ft | 528 kts | 45° |
| 2026-04-30 19:44 | 26.67270 | 124.01889 | 33074 ft | 528 kts | 45° |
| 2026-04-30 19:45 | 26.71986 | 124.08195 | 33074 ft | 530 kts | 45° |
| 2026-04-30 19:45 | 26.76679 | 124.14481 | 33071 ft | 526 kts | 45° |
| 2026-04-30 19:46 | 26.81396 | 124.20806 | 33072 ft | 530 kts | 45° |
| 2026-04-30 19:46 | 26.86104 | 124.27130 | 33070 ft | 527 kts | 45° |
| 2026-04-30 19:47 | 26.90809 | 124.33458 | 33071 ft | 532 kts | 45° |
| 2026-04-30 19:47 | 26.95510 | 124.39792 | 33072 ft | 530 kts | 45° |
| 2026-04-30 19:48 | 27.00239 | 124.46169 | 33072 ft | 532 kts | 45° |
| 2026-04-30 19:48 | 27.04974 | 124.52560 | 33076 ft | 532 kts | 45° |
| 2026-04-30 19:49 | 27.09698 | 124.58947 | 33075 ft | 532 kts | 45° |
| 2026-04-30 19:49 | 27.16797 | 124.68561 | 33060 ft | 535 kts | 45° |
| 2026-04-30 19:50 | 27.21551 | 124.75011 | 33058 ft | 534 kts | 45° |
| 2026-04-30 19:50 | 27.26294 | 124.81456 | 33061 ft | 536 kts | 45° |
| 2026-04-30 19:51 | 27.31031 | 124.87902 | 33060 ft | 537 kts | 45° |
| 2026-04-30 19:51 | 27.35780 | 124.94375 | 33066 ft | 537 kts | 45° |
| 2026-04-30 19:52 | 27.40561 | 125.00897 | 33064 ft | 538 kts | 45° |
| 2026-04-30 19:52 | 27.45333 | 125.07333 | 33065 ft | 537 kts | 44° |
| 2026-04-30 19:53 | 27.50150 | 125.13830 | 33065 ft | 538 kts | 45° |
| 2026-04-30 19:53 | 27.54950 | 125.20317 | 33070 ft | 539 kts | 44° |
| 2026-04-30 19:54 | 27.59759 | 125.26826 | 33072 ft | 542 kts | 44° |
| 2026-04-30 19:54 | 27.64582 | 125.33367 | 33069 ft | 539 kts | 44° |
| 2026-04-30 19:55 | 27.69410 | 125.39922 | 33075 ft | 544 kts | 44° |
| 2026-04-30 19:55 | 27.74220 | 125.46465 | 33076 ft | 544 kts | 44° |
| 2026-04-30 19:56 | 27.79058 | 125.53057 | 33073 ft | 544 kts | 44° |
| 2026-04-30 19:56 | 27.83906 | 125.59672 | 33076 ft | 546 kts | 44° |
| 2026-04-30 19:57 | 27.88764 | 125.66311 | 33065 ft | 546 kts | 44° |
| 2026-04-30 19:57 | 27.93589 | 125.72914 | 33056 ft | 550 kts | 44° |
| 2026-04-30 19:58 | 27.98437 | 125.79560 | 33056 ft | 548 kts | 44° |
| 2026-04-30 19:58 | 28.03332 | 125.86282 | 33050 ft | 549 kts | 44° |
| 2026-04-30 19:59 | 28.08164 | 125.92928 | 33053 ft | 549 kts | 44° |
| 2026-04-30 20:00 | 28.15456 | 126.02975 | 33041 ft | 549 kts | 44° |
| 2026-04-30 20:00 | 28.20350 | 126.09730 | 33043 ft | 552 kts | 44° |
| 2026-04-30 20:01 | 28.27665 | 126.19850 | 33051 ft | 554 kts | 44° |
| 2026-04-30 20:01 | 28.32552 | 126.26623 | 33051 ft | 557 kts | 44° |
| 2026-04-30 20:02 | 28.39937 | 126.36883 | 33053 ft | 557 kts | 44° |
| 2026-04-30 20:03 | 28.47319 | 126.47160 | 33051 ft | 558 kts | 44° |
| 2026-04-30 20:03 | 28.52237 | 126.54019 | 33066 ft | 562 kts | 44° |
| 2026-04-30 20:04 | 28.57157 | 126.60896 | 33056 ft | 560 kts | 44° |
| 2026-04-30 20:05 | 28.64582 | 126.71292 | 33035 ft | 565 kts | 45° |
| 2026-04-30 20:05 | 28.72014 | 126.81724 | 33034 ft | 568 kts | 45° |
| 2026-04-30 20:06 | 28.76969 | 126.88696 | 33029 ft | 565 kts | 45° |
| 2026-04-30 20:06 | 28.81911 | 126.95658 | 33029 ft | 569 kts | 44° |
| 2026-04-30 20:07 | 28.86892 | 127.02690 | 33041 ft | 571 kts | 44° |
| 2026-04-30 20:08 | 28.94374 | 127.13274 | 33053 ft | 570 kts | 44° |
| 2026-04-30 20:08 | 28.99358 | 127.20338 | 33056 ft | 570 kts | 44° |
| 2026-04-30 20:09 | 29.04360 | 127.27438 | 33057 ft | 574 kts | 44° |
| 2026-04-30 20:09 | 29.11843 | 127.38088 | 33045 ft | 574 kts | 44° |
| 2026-04-30 20:10 | 29.19384 | 127.48845 | 33039 ft | 577 kts | 44° |
| 2026-04-30 20:11 | 29.26936 | 127.59650 | 33031 ft | 575 kts | 44° |
| 2026-04-30 20:11 | 29.31933 | 127.66812 | 33013 ft | 578 kts | 44° |
| 2026-04-30 20:12 | 29.39448 | 127.77608 | 32998 ft | 578 kts | 44° |
| 2026-04-30 20:13 | 29.44469 | 127.84837 | 32999 ft | 578 kts | 44° |
| 2026-04-30 20:13 | 29.49464 | 127.92038 | 32994 ft | 585 kts | 45° |
| 2026-04-30 20:14 | 29.54509 | 127.99333 | 32994 ft | 576 kts | 44° |
| 2026-04-30 20:14 | 29.59519 | 128.06572 | 32994 ft | 584 kts | 45° |
| 2026-04-30 20:15 | 29.64557 | 128.13870 | 32992 ft | 580 kts | 44° |
| 2026-04-30 20:15 | 29.69619 | 128.21211 | 32998 ft | 588 kts | 44° |
| 2026-04-30 20:16 | 29.74667 | 128.28552 | 32998 ft | 586 kts | 45° |
| 2026-04-30 20:16 | 29.79729 | 128.35924 | 32999 ft | 588 kts | 44° |
| 2026-04-30 20:17 | 29.84771 | 128.43280 | 32997 ft | 588 kts | 45° |
| 2026-04-30 20:17 | 29.89849 | 128.50702 | 32988 ft | 589 kts | 44° |
| 2026-04-30 20:18 | 29.94895 | 128.58092 | 32989 ft | 588 kts | 45° |
| 2026-04-30 20:18 | 29.98257 | 128.63019 | 32984 ft | 595 kts | 45° |
| 2026-04-30 20:19 | 30.02319 | 128.68985 | 32989 ft | 589 kts | 47° |
| 2026-04-30 20:19 | 30.04828 | 128.72681 | 32976 ft | 576 kts | 47° |
| 2026-04-30 20:19 | 30.07274 | 128.76282 | 32977 ft | 574 kts | 47° |
| 2026-04-30 20:20 | 30.12271 | 128.83640 | 32957 ft | 583 kts | 46° |
| 2026-04-30 20:20 | 30.17274 | 128.91025 | 32953 ft | 589 kts | 46° |
| 2026-04-30 20:21 | 30.22361 | 128.98544 | 32951 ft | 599 kts | 47° |
| 2026-04-30 20:21 | 30.27464 | 129.06111 | 32948 ft | 593 kts | 47° |
| 2026-04-30 20:22 | 30.32552 | 129.13666 | 32949 ft | 594 kts | 46° |
| 2026-04-30 20:22 | 30.37598 | 129.21173 | 32944 ft | 595 kts | 47° |
| 2026-04-30 20:23 | 30.42703 | 129.28783 | 32950 ft | 595 kts | 47° |
| 2026-04-30 20:23 | 30.47763 | 129.36339 | 32948 ft | 594 kts | 48° |
| 2026-04-30 20:24 | 30.52842 | 129.43936 | 32946 ft | 594 kts | 48° |
| 2026-04-30 20:24 | 30.57910 | 129.51533 | 32954 ft | 596 kts | 47° |
| 2026-04-30 20:25 | 30.65512 | 129.62956 | 32958 ft | 597 kts | 49° |
| 2026-04-30 20:26 | 30.73098 | 129.74388 | 32929 ft | 598 kts | 49° |
| 2026-04-30 20:26 | 30.80709 | 129.85889 | 32932 ft | 600 kts | 49° |
| 2026-04-30 20:27 | 30.90059 | 130.02054 | 32936 ft | 605 kts | 57° |
| 2026-04-30 20:28 | 30.98849 | 130.18637 | 32931 ft | 604 kts | 57° |
| 2026-04-30 20:30 | 31.09792 | 130.39363 | 32920 ft | 596 kts | 58° |
| 2026-04-30 20:31 | 31.22865 | 130.64264 | 32903 ft | 599 kts | 59° |
| 2026-04-30 20:32 | 31.33675 | 130.84975 | 32881 ft | 597 kts | 59° |
| 2026-04-30 20:33 | 31.40119 | 130.97372 | 32879 ft | 595 kts | 60° |
| 2026-04-30 20:34 | 31.46571 | 131.09828 | 32867 ft | 597 kts | 60° |
| 2026-04-30 20:35 | 31.52998 | 131.22276 | 32873 ft | 595 kts | 60° |
| 2026-04-30 20:35 | 31.59425 | 131.34763 | 32875 ft | 597 kts | 60° |
| 2026-04-30 20:36 | 31.63708 | 131.43112 | 32870 ft | 597 kts | 61° |
| 2026-04-30 20:37 | 31.70132 | 131.55675 | 32855 ft | 597 kts | 61° |
| 2026-04-30 20:37 | 31.74393 | 131.64031 | 32858 ft | 597 kts | 62° |
| 2026-04-30 20:38 | 31.78668 | 131.72432 | 32832 ft | 601 kts | 63° |
| 2026-04-30 20:38 | 31.82916 | 131.80797 | 32829 ft | 597 kts | 62° |
| 2026-04-30 20:39 | 31.89344 | 131.93495 | 32824 ft | 599 kts | 63° |
| 2026-04-30 20:40 | 31.95734 | 132.06157 | 32820 ft | 600 kts | 63° |
| 2026-04-30 20:40 | 31.99986 | 132.14606 | 32816 ft | 598 kts | 63° |
| 2026-04-30 20:41 | 32.06336 | 132.27261 | 32815 ft | 599 kts | 63° |
| 2026-04-30 20:41 | 32.10564 | 132.35712 | 32803 ft | 596 kts | 62° |
| 2026-04-30 20:42 | 32.14831 | 132.44109 | 32788 ft | 598 kts | 62° |
| 2026-04-30 20:43 | 32.21435 | 132.56586 | 32785 ft | 597 kts | 61° |
| 2026-04-30 20:43 | 32.25809 | 132.64883 | 32788 ft | 598 kts | 60° |
| 2026-04-30 20:44 | 32.32368 | 132.77376 | 32754 ft | 594 kts | 62° |
| 2026-04-30 20:45 | 32.41029 | 132.93953 | 32755 ft | 592 kts | 62° |
| 2026-04-30 20:45 | 32.45364 | 133.02280 | 32758 ft | 593 kts | 62° |
| 2026-04-30 20:46 | 32.54007 | 133.18939 | 32752 ft | 592 kts | 61° |
| 2026-04-30 20:47 | 32.60460 | 133.31427 | 32753 ft | 591 kts | 62° |
| 2026-04-30 20:48 | 32.66875 | 133.43919 | 32743 ft | 591 kts | 62° |
| 2026-04-30 20:48 | 32.71051 | 133.52286 | 32737 ft | 590 kts | 63° |
| 2026-04-30 20:49 | 32.75239 | 133.60701 | 32727 ft | 590 kts | 62° |
| 2026-04-30 20:50 | 32.81464 | 133.73233 | 32705 ft | 587 kts | 63° |
| 2026-04-30 20:50 | 32.85625 | 133.81632 | 32703 ft | 585 kts | 64° |
| 2026-04-30 20:51 | 32.89722 | 133.89917 | 32701 ft | 586 kts | 63° |
| 2026-04-30 20:51 | 32.95922 | 134.02489 | 32704 ft | 587 kts | 64° |
| 2026-04-30 20:52 | 33.00049 | 134.10879 | 32705 ft | 584 kts | 63° |
| 2026-04-30 20:53 | 33.05956 | 134.23524 | 32707 ft | 577 kts | 73° |
| 2026-04-30 20:53 | 33.08426 | 134.32471 | 32717 ft | 570 kts | 80° |
| 2026-04-30 20:54 | 33.11773 | 134.45979 | 32694 ft | 567 kts | 79° |
| 2026-04-30 20:55 | 33.15098 | 134.59502 | 32687 ft | 564 kts | 79° |
| 2026-04-30 20:55 | 33.17289 | 134.68454 | 32670 ft | 562 kts | 80° |
| 2026-04-30 20:56 | 33.20545 | 134.81824 | 32668 ft | 560 kts | 80° |
| 2026-04-30 20:57 | 33.23770 | 134.95137 | 32668 ft | 559 kts | 80° |
| 2026-04-30 20:57 | 33.25969 | 135.04045 | 32675 ft | 562 kts | 78° |
| 2026-04-30 20:58 | 33.29460 | 135.17314 | 32677 ft | 560 kts | 78° |
| 2026-04-30 20:58 | 33.31771 | 135.26147 | 32690 ft | 556 kts | 78° |
| 2026-04-30 20:59 | 33.35209 | 135.39372 | 32690 ft | 556 kts | 78° |
| 2026-04-30 21:00 | 33.39530 | 135.57047 | 32701 ft | 552 kts | 80° |
| 2026-04-30 21:01 | 33.42663 | 135.70258 | 32698 ft | 554 kts | 77° |
| 2026-04-30 21:01 | 33.46160 | 135.78716 | 32720 ft | 567 kts | 60° |
| 2026-04-30 21:02 | 33.48371 | 135.82616 | 32722 ft | 566 kts | 58° |
| 2026-04-30 21:02 | 33.52817 | 135.90355 | 32726 ft | 564 kts | 58° |
| 2026-04-30 21:03 | 33.57290 | 135.98155 | 32739 ft | 565 kts | 58° |
| 2026-04-30 21:03 | 33.61714 | 136.05884 | 32743 ft | 567 kts | 58° |
| 2026-04-30 21:04 | 33.66164 | 136.13675 | 32743 ft | 565 kts | 58° |
| 2026-04-30 21:04 | 33.72847 | 136.25409 | 32735 ft | 564 kts | 58° |
| 2026-04-30 21:05 | 33.77253 | 136.33165 | 32733 ft | 562 kts | 58° |
| 2026-04-30 21:05 | 33.81673 | 136.40961 | 32731 ft | 563 kts | 58° |
| 2026-04-30 21:06 | 33.86082 | 136.48756 | 32723 ft | 562 kts | 58° |
| 2026-04-30 21:06 | 33.90478 | 136.56546 | 32726 ft | 563 kts | 58° |
| 2026-04-30 21:07 | 33.94846 | 136.64298 | 32720 ft | 560 kts | 58° |
| 2026-04-30 21:07 | 33.99220 | 136.72082 | 32709 ft | 562 kts | 58° |
| 2026-04-30 21:08 | 34.03594 | 136.79880 | 32698 ft | 556 kts | 59° |
| 2026-04-30 21:08 | 34.07957 | 136.87677 | 32709 ft | 561 kts | 59° |
| 2026-04-30 21:09 | 34.12291 | 136.95439 | 32691 ft | 559 kts | 58° |
| 2026-04-30 21:09 | 34.16609 | 137.03186 | 32683 ft | 559 kts | 59° |
| 2026-04-30 21:10 | 34.20958 | 137.11008 | 32676 ft | 557 kts | 59° |
| 2026-04-30 21:10 | 34.25280 | 137.18797 | 32689 ft | 556 kts | 59° |
| 2026-04-30 21:11 | 34.29637 | 137.26671 | 32684 ft | 560 kts | 58° |
| 2026-04-30 21:11 | 34.33949 | 137.34476 | 32710 ft | 557 kts | 58° |
| 2026-04-30 21:12 | 34.38235 | 137.42250 | 32722 ft | 555 kts | 58° |
| 2026-04-30 21:12 | 34.42512 | 137.50026 | 32734 ft | 558 kts | 58° |
| 2026-04-30 21:13 | 34.46800 | 137.57840 | 32737 ft | 558 kts | 58° |
| 2026-04-30 21:13 | 34.51080 | 137.65654 | 32752 ft | 553 kts | 59° |
| 2026-04-30 21:14 | 34.55316 | 137.73408 | 32766 ft | 553 kts | 59° |
| 2026-04-30 21:14 | 34.59580 | 137.81227 | 32759 ft | 555 kts | 59° |
| 2026-04-30 21:15 | 34.63814 | 137.89008 | 32772 ft | 553 kts | 59° |
| 2026-04-30 21:15 | 34.67936 | 137.96909 | 32783 ft | 552 kts | 65° |
| 2026-04-30 21:16 | 34.70486 | 138.05539 | 32811 ft | 541 kts | 84° |
| 2026-04-30 21:16 | 34.71148 | 138.14516 | 32818 ft | 529 kts | 94° |
| 2026-04-30 21:17 | 34.71323 | 138.23456 | 32525 ft | 522 kts | 96° |
| 2026-04-30 21:17 | 34.71379 | 138.27832 | 31585 ft | 528 kts | 95° |
| 2026-04-30 21:17 | 34.71421 | 138.32327 | 30593 ft | 533 kts | 95° |
| 2026-04-30 21:18 | 34.71453 | 138.36836 | 30046 ft | 528 kts | 95° |
| 2026-04-30 21:18 | 34.71479 | 138.41237 | 29595 ft | 522 kts | 94° |
| 2026-04-30 21:18 | 34.71498 | 138.45650 | 29066 ft | 518 kts | 94° |
| 2026-04-30 21:18 | 34.71511 | 138.49985 | 28527 ft | 515 kts | 95° |
| 2026-04-30 21:19 | 34.71520 | 138.54301 | 27967 ft | 512 kts | 95° |
| 2026-04-30 21:19 | 34.71525 | 138.58601 | 27403 ft | 509 kts | 94° |
| 2026-04-30 21:19 | 34.71527 | 138.62842 | 26848 ft | 506 kts | 94° |
| 2026-04-30 21:19 | 34.71526 | 138.67107 | 26272 ft | 503 kts | 95° |
| 2026-04-30 21:20 | 34.71523 | 138.71361 | 25676 ft | 501 kts | 95° |
| 2026-04-30 21:20 | 34.71518 | 138.75531 | 25091 ft | 498 kts | 95° |
| 2026-04-30 21:20 | 34.71511 | 138.79701 | 24501 ft | 495 kts | 95° |
| 2026-04-30 21:20 | 34.71503 | 138.83888 | 23920 ft | 492 kts | 95° |
| 2026-04-30 21:21 | 34.71492 | 138.87979 | 23354 ft | 490 kts | 94° |
| 2026-04-30 21:21 | 34.71481 | 138.92094 | 22769 ft | 487 kts | 94° |
| 2026-04-30 21:21 | 34.71452 | 139.00273 | 21616 ft | 484 kts | 94° |
| 2026-04-30 21:22 | 34.71436 | 139.04346 | 20981 ft | 482 kts | 94° |
| 2026-04-30 21:22 | 34.71379 | 139.16486 | 19201 ft | 476 kts | 94° |
| 2026-04-30 21:23 | 34.71358 | 139.20491 | 18603 ft | 475 kts | 93° |
| 2026-04-30 21:23 | 34.71336 | 139.24477 | 18010 ft | 473 kts | 93° |
| 2026-04-30 21:23 | 34.71289 | 139.32321 | 16729 ft | 457 kts | 94° |
| 2026-04-30 21:24 | 34.71276 | 139.36099 | 16224 ft | 443 kts | 91° |
| 2026-04-30 21:24 | 34.71601 | 139.39771 | 15707 ft | 434 kts | 81° |
| 2026-04-30 21:24 | 34.72425 | 139.43245 | 15149 ft | 426 kts | 70° |
| 2026-04-30 21:24 | 34.73680 | 139.46458 | 14580 ft | 418 kts | 64° |
| 2026-04-30 21:25 | 34.76383 | 139.52510 | 13661 ft | 394 kts | 63° |
| 2026-04-30 21:25 | 34.77671 | 139.55364 | 13671 ft | 377 kts | 64° |
| 2026-04-30 21:25 | 34.78915 | 139.58115 | 13467 ft | 367 kts | 64° |
| 2026-04-30 21:26 | 34.81308 | 139.63399 | 13221 ft | 347 kts | 64° |
| 2026-04-30 21:26 | 34.82456 | 139.65929 | 13047 ft | 337 kts | 65° |
| 2026-04-30 21:27 | 34.85600 | 139.69865 | 12877 ft | 329 kts | 25° |
| 2026-04-30 21:27 | 34.87712 | 139.70999 | 12843 ft | 330 kts | 19° |
| 2026-04-30 21:27 | 34.89872 | 139.71948 | 12884 ft | 330 kts | 18° |
| 2026-04-30 21:28 | 34.94220 | 139.73734 | 12885 ft | 330 kts | 17° |
| 2026-04-30 21:28 | 34.96417 | 139.74628 | 12832 ft | 330 kts | 18° |
| 2026-04-30 21:28 | 35.00300 | 139.77551 | 12892 ft | 337 kts | 45° |
| 2026-04-30 21:29 | 35.01981 | 139.79520 | 12855 ft | 337 kts | 49° |
| 2026-04-30 21:29 | 35.06991 | 139.85558 | 12874 ft | 338 kts | 54° |
| 2026-04-30 21:30 | 35.08642 | 139.90723 | 12877 ft | 324 kts | 101° |
| 2026-04-30 21:31 | 35.06334 | 139.97926 | 12897 ft | 292 kts | 129° |
| 2026-04-30 21:31 | 35.04214 | 140.02013 | 12928 ft | 282 kts | 131° |
| 2026-04-30 21:32 | 35.02342 | 140.06210 | 12902 ft | 286 kts | 115° |
| 2026-04-30 21:32 | 35.01859 | 140.08615 | 12898 ft | 299 kts | 111° |
| 2026-04-30 21:32 | 35.01418 | 140.11096 | 12948 ft | 302 kts | 110° |
| 2026-04-30 21:32 | 35.00972 | 140.13602 | 12896 ft | 300 kts | 111° |
| 2026-04-30 21:33 | 35.00528 | 140.16069 | 12920 ft | 300 kts | 110° |
| 2026-04-30 21:33 | 35.00079 | 140.21152 | 12928 ft | 309 kts | 93° |
| 2026-04-30 21:33 | 35.00275 | 140.23770 | 12935 ft | 316 kts | 91° |
| 2026-04-30 21:34 | 35.00507 | 140.26460 | 12936 ft | 318 kts | 91° |
| 2026-04-30 21:34 | 35.00954 | 140.31818 | 12921 ft | 318 kts | 91° |
| 2026-04-30 21:34 | 35.01468 | 140.34445 | 12922 ft | 323 kts | 73° |
| 2026-04-30 21:35 | 35.02394 | 140.36929 | 12925 ft | 326 kts | 69° |
| 2026-04-30 21:35 | 35.03400 | 140.39392 | 12935 ft | 327 kts | 69° |
| 2026-04-30 21:35 | 35.04432 | 140.41914 | 12939 ft | 330 kts | 66° |
| 2026-04-30 21:35 | 35.05751 | 140.44186 | 12898 ft | 330 kts | 43° |
| 2026-04-30 21:36 | 35.07699 | 140.45671 | 12899 ft | 335 kts | 17° |
| 2026-04-30 21:36 | 35.09940 | 140.46161 | 12900 ft | 323 kts | 355° |
| 2026-04-30 21:37 | 35.15751 | 140.42815 | 11311 ft | 310 kts | 312° |
| 2026-04-30 21:37 | 35.17374 | 140.41119 | 11220 ft | 298 kts | 314° |
| 2026-04-30 21:37 | 35.18964 | 140.39546 | 10953 ft | 295 kts | 314° |
| 2026-04-30 21:37 | 35.20587 | 140.37988 | 10496 ft | 297 kts | 315° |
| 2026-04-30 21:38 | 35.22222 | 140.36436 | 10098 ft | 297 kts | 315° |
| 2026-04-30 21:38 | 35.23847 | 140.34901 | 9837 ft | 293 kts | 316° |
| 2026-04-30 21:38 | 35.25447 | 140.33389 | 9458 ft | 293 kts | 316° |
| 2026-04-30 21:38 | 35.27065 | 140.31857 | 9030 ft | 294 kts | 316° |
| 2026-04-30 21:39 | 35.28683 | 140.30325 | 8641 ft | 294 kts | 316° |
| 2026-04-30 21:39 | 35.30306 | 140.28790 | 8283 ft | 293 kts | 317° |
| 2026-04-30 21:39 | 35.31885 | 140.27295 | 8086 ft | 285 kts | 317° |
| 2026-04-30 21:39 | 35.33435 | 140.25829 | 7939 ft | 278 kts | 317° |
| 2026-04-30 21:40 | 35.34978 | 140.24362 | 7929 ft | 283 kts | 317° |
| 2026-04-30 21:40 | 35.36549 | 140.22897 | 7947 ft | 284 kts | 322° |
| 2026-04-30 21:40 | 35.38398 | 140.22003 | 7843 ft | 289 kts | 347° |
| 2026-04-30 21:40 | 35.40427 | 140.21690 | 7444 ft | 298 kts | 355° |
| 2026-04-30 21:41 | 35.42514 | 140.21490 | 6946 ft | 303 kts | 355° |
| 2026-04-30 21:41 | 35.44623 | 140.21291 | 6562 ft | 304 kts | 355° |
| 2026-04-30 21:41 | 35.46738 | 140.21080 | 6192 ft | 300 kts | 355° |
| 2026-04-30 21:41 | 35.48808 | 140.20869 | 5769 ft | 292 kts | 355° |
| 2026-04-30 21:42 | 35.50817 | 140.20662 | 5399 ft | 285 kts | 356° |
| 2026-04-30 21:42 | 35.52763 | 140.20447 | 5033 ft | 276 kts | 353° |
| 2026-04-30 21:42 | 35.54624 | 140.19933 | 4980 ft | 275 kts | 346° |
| 2026-04-30 21:42 | 35.56480 | 140.19295 | 4939 ft | 276 kts | 344° |
| 2026-04-30 21:43 | 35.58184 | 140.18291 | 4937 ft | 273 kts | 319° |
| 2026-04-30 21:43 | 35.59459 | 140.16511 | 4938 ft | 272 kts | 300° |
| 2026-04-30 21:43 | 35.60357 | 140.14496 | 4941 ft | 265 kts | 282° |
| 2026-04-30 21:43 | 35.60580 | 140.12294 | 4956 ft | 258 kts | 264° |
| 2026-04-30 21:44 | 35.60572 | 140.10187 | 4957 ft | 237 kts | 262° |
| 2026-04-30 21:44 | 35.60550 | 140.08240 | 4942 ft | 218 kts | 262° |
| 2026-04-30 21:44 | 35.60537 | 140.06445 | 4819 ft | 207 kts | 260° |
| 2026-04-30 21:44 | 35.60521 | 140.04671 | 4460 ft | 208 kts | 261° |
| 2026-04-30 21:45 | 35.60511 | 140.02898 | 4103 ft | 207 kts | 261° |
| 2026-04-30 21:45 | 35.60506 | 140.01202 | 3815 ft | 189 kts | 261° |
| 2026-04-30 21:45 | 35.60500 | 139.99658 | 3529 ft | 173 kts | 259° |
| 2026-04-30 21:45 | 35.60487 | 139.98184 | 3311 ft | 171 kts | 259° |
| 2026-04-30 21:46 | 35.60478 | 139.96736 | 3065 ft | 170 kts | 259° |
| 2026-04-30 21:46 | 35.60466 | 139.95273 | 2784 ft | 172 kts | 260° |
| 2026-04-30 21:46 | 35.60459 | 139.93813 | 2466 ft | 170 kts | 261° |
| 2026-04-30 21:46 | 35.60450 | 139.92369 | 2135 ft | 169 kts | 261° |
| 2026-04-30 21:47 | 35.60440 | 139.90922 | 1807 ft | 169 kts | 262° |
| 2026-04-30 21:47 | 35.60429 | 139.89479 | 1480 ft | 169 kts | 264° |
| 2026-04-30 21:47 | 35.60420 | 139.88049 | 1154 ft | 166 kts | 266° |
| 2026-04-30 21:47 | 35.60413 | 139.86682 | 968 ft | 158 kts | 268° |
| 2026-04-30 21:48 | 35.60426 | 139.85298 | 939 ft | 162 kts | 278° |
| 2026-04-30 21:48 | 35.60507 | 139.83926 | 894 ft | 160 kts | 268° |
| 2026-04-30 21:48 | 35.60399 | 139.82561 | 913 ft | 160 kts | 258° |
| 2026-04-30 21:48 | 35.60042 | 139.81253 | 896 ft | 166 kts | 239° |
| 2026-04-30 21:49 | 35.59375 | 139.80078 | 922 ft | 166 kts | 225° |
| 2026-04-30 21:49 | 35.58497 | 139.79158 | 786 ft | 171 kts | 211° |
| 2026-04-30 21:49 | 35.57478 | 139.78372 | 459 ft | 168 kts | 215° |
| 2026-04-30 21:49 | 35.56570 | 139.77537 | 750 ft | 156 kts | 216° |
| 2026-04-30 21:50 | 35.55735 | 139.76688 | 1534 ft | 168 kts | 220° |
| 2026-04-30 21:50 | 35.54911 | 139.75586 | 2095 ft | 176 kts | 220° |
| 2026-04-30 21:50 | 35.54022 | 139.74568 | 2860 ft | 179 kts | 211° |
| 2026-04-30 21:50 | 35.53107 | 139.73566 | 3877 ft | 183 kts | 218° |
| 2026-04-30 21:51 | 35.52189 | 139.72438 | 4039 ft | 182 kts | 215° |
| 2026-04-30 21:51 | 35.51234 | 139.71361 | 4180 ft | 186 kts | 214° |
| 2026-04-30 21:51 | 35.50283 | 139.70308 | 4114 ft | 183 kts | 214° |
| 2026-04-30 21:51 | 35.49335 | 139.69257 | 4040 ft | 183 kts | 214° |
| 2026-04-30 21:52 | 35.48380 | 139.68242 | 3959 ft | 180 kts | 205° |
| 2026-04-30 21:52 | 35.47222 | 139.67909 | 3936 ft | 170 kts | 166° |
| 2026-04-30 21:52 | 35.46109 | 139.68346 | 3942 ft | 166 kts | 157° |
| 2026-04-30 21:52 | 35.45049 | 139.68866 | 3945 ft | 163 kts | 156° |
| 2026-04-30 21:53 | 35.43993 | 139.69383 | 3947 ft | 165 kts | 156° |
| 2026-04-30 21:53 | 35.42927 | 139.69902 | 3937 ft | 163 kts | 156° |
| 2026-04-30 21:53 | 35.41858 | 139.70415 | 3939 ft | 165 kts | 156° |
| 2026-04-30 21:53 | 35.40791 | 139.70929 | 3930 ft | 164 kts | 156° |
| 2026-04-30 21:54 | 35.39711 | 139.71460 | 3936 ft | 170 kts | 152° |
| 2026-04-30 21:54 | 35.38784 | 139.72485 | 3946 ft | 186 kts | 122° |
| 2026-04-30 21:54 | 35.38490 | 139.74026 | 3960 ft | 190 kts | 99° |
| 2026-04-30 21:54 | 35.38450 | 139.75676 | 3978 ft | 194 kts | 98° |
| 2026-04-30 21:55 | 35.38416 | 139.77330 | 3983 ft | 194 kts | 98° |
| 2026-04-30 21:55 | 35.38382 | 139.78983 | 3981 ft | 196 kts | 98° |
| 2026-04-30 21:55 | 35.38348 | 139.80638 | 4022 ft | 199 kts | 99° |
| 2026-04-30 21:55 | 35.38312 | 139.82338 | 4371 ft | 199 kts | 99° |
| 2026-04-30 21:56 | 35.38276 | 139.84035 | 4717 ft | 200 kts | 99° |
| 2026-04-30 21:56 | 35.38236 | 139.85786 | 4917 ft | 211 kts | 98° |
| 2026-04-30 21:56 | 35.38197 | 139.87585 | 4917 ft | 214 kts | 99° |
| 2026-04-30 21:56 | 35.38159 | 139.89389 | 4906 ft | 214 kts | 99° |
| 2026-04-30 21:57 | 35.38120 | 139.91232 | 4909 ft | 217 kts | 98° |
| 2026-04-30 21:57 | 35.38081 | 139.93089 | 4919 ft | 218 kts | 99° |
| 2026-04-30 21:57 | 35.38041 | 139.94942 | 4918 ft | 217 kts | 99° |
| 2026-04-30 21:57 | 35.37999 | 139.96796 | 4925 ft | 219 kts | 98° |
| 2026-04-30 21:58 | 35.37960 | 139.98648 | 4939 ft | 218 kts | 99° |
| 2026-04-30 21:58 | 35.37918 | 140.00501 | 4946 ft | 217 kts | 98° |
| 2026-04-30 21:58 | 35.37878 | 140.02339 | 4929 ft | 216 kts | 98° |
| 2026-04-30 21:58 | 35.37838 | 140.04175 | 4934 ft | 217 kts | 99° |
| 2026-04-30 21:59 | 35.37795 | 140.06036 | 4930 ft | 219 kts | 98° |
| 2026-04-30 21:59 | 35.37754 | 140.07901 | 4910 ft | 218 kts | 99° |
| 2026-04-30 21:59 | 35.37712 | 140.09761 | 4918 ft | 217 kts | 99° |
| 2026-04-30 22:00 | 35.37628 | 140.13460 | 4951 ft | 218 kts | 99° |
| 2026-04-30 22:00 | 35.37554 | 140.17188 | 4896 ft | 218 kts | 99° |
| 2026-04-30 22:00 | 35.37211 | 140.18942 | 4912 ft | 215 kts | 123° |
| 2026-04-30 22:01 | 35.36531 | 140.20544 | 4900 ft | 208 kts | 123° |
| 2026-04-30 22:01 | 35.35742 | 140.22060 | 4906 ft | 220 kts | 139° |
| 2026-04-30 22:01 | 35.34454 | 140.23070 | 4918 ft | 221 kts | 158° |
| 2026-04-30 22:01 | 35.33005 | 140.23706 | 4912 ft | 222 kts | 162° |
| 2026-04-30 22:02 | 35.31503 | 140.24265 | 4903 ft | 222 kts | 163° |
| 2026-04-30 22:02 | 35.31038 | 140.24435 | 4908 ft | 222 kts | 163° |
| 2026-04-30 22:02 | 35.30497 | 140.24635 | 4911 ft | 224 kts | 164° |
| 2026-04-30 22:02 | 35.29008 | 140.25191 | 4912 ft | 222 kts | 163° |
| 2026-04-30 22:03 | 35.27478 | 140.25508 | 4883 ft | 224 kts | 186° |
| 2026-04-30 22:03 | 35.26066 | 140.24739 | 4870 ft | 229 kts | 219° |
| 2026-04-30 22:03 | 35.25290 | 140.23021 | 4856 ft | 244 kts | 256° |
| 2026-04-30 22:03 | 35.25538 | 140.20926 | 4842 ft | 263 kts | 294° |
| 2026-04-30 22:04 | 35.26796 | 140.19228 | 4893 ft | 283 kts | 326° |
| 2026-04-30 22:04 | 35.28711 | 140.18475 | 4898 ft | 298 kts | 359° |
| 2026-04-30 22:04 | 35.32905 | 140.18703 | 4898 ft | 302 kts | 6° |
| 2026-04-30 22:05 | 35.34987 | 140.18878 | 4918 ft | 301 kts | 5° |
| 2026-04-30 22:05 | 35.37064 | 140.19052 | 4903 ft | 296 kts | 6° |
| 2026-04-30 22:05 | 35.39111 | 140.19226 | 4910 ft | 292 kts | 5° |
| 2026-04-30 22:05 | 35.41163 | 140.19400 | 4910 ft | 291 kts | 6° |
| 2026-04-30 22:06 | 35.43166 | 140.19569 | 4924 ft | 291 kts | 5° |
| 2026-04-30 22:06 | 35.47228 | 140.19913 | 4924 ft | 290 kts | 6° |
| 2026-04-30 22:06 | 35.49219 | 140.20082 | 4985 ft | 291 kts | 6° |
| 2026-04-30 22:07 | 35.51235 | 140.20253 | 4992 ft | 290 kts | 6° |
| 2026-04-30 22:07 | 35.53256 | 140.20268 | 4960 ft | 290 kts | 352° |
| 2026-04-30 22:07 | 35.55238 | 140.19730 | 4973 ft | 286 kts | 345° |
| 2026-04-30 22:07 | 35.57084 | 140.19061 | 4986 ft | 267 kts | 337° |
| 2026-04-30 22:08 | 35.58529 | 140.17845 | 4975 ft | 240 kts | 309° |
| 2026-04-30 22:08 | 35.59502 | 140.16313 | 4953 ft | 217 kts | 298° |
| 2026-04-30 22:08 | 35.60275 | 140.14803 | 4942 ft | 199 kts | 285° |
| 2026-04-30 22:08 | 35.60559 | 140.13229 | 4985 ft | 190 kts | 262° |
| 2026-04-30 22:09 | 35.60559 | 140.11621 | 4965 ft | 184 kts | 260° |
| 2026-04-30 22:09 | 35.60548 | 140.10072 | 4970 ft | 180 kts | 260° |
| 2026-04-30 22:09 | 35.60541 | 140.08545 | 4984 ft | 175 kts | 259° |
| 2026-04-30 22:09 | 35.60535 | 140.07082 | 4979 ft | 171 kts | 259° |
| 2026-04-30 22:10 | 35.60525 | 140.05620 | 4658 ft | 170 kts | 259° |
| 2026-04-30 22:10 | 35.60519 | 140.04202 | 4332 ft | 166 kts | 259° |
| 2026-04-30 22:10 | 35.60510 | 140.02782 | 4061 ft | 167 kts | 258° |
| 2026-04-30 22:10 | 35.60503 | 140.01346 | 3780 ft | 169 kts | 258° |
| 2026-04-30 22:11 | 35.60485 | 139.98436 | 3241 ft | 171 kts | 260° |
| 2026-04-30 22:11 | 35.60478 | 139.96973 | 2970 ft | 172 kts | 260° |
| 2026-04-30 22:11 | 35.60469 | 139.95515 | 2691 ft | 170 kts | 261° |
| 2026-04-30 22:12 | 35.60460 | 139.94073 | 2421 ft | 169 kts | 261° |
| 2026-04-30 22:12 | 35.60451 | 139.92638 | 2148 ft | 168 kts | 262° |
| 2026-04-30 22:12 | 35.60442 | 139.91203 | 1874 ft | 167 kts | 262° |
| 2026-04-30 22:12 | 35.60433 | 139.89784 | 1608 ft | 167 kts | 263° |
| 2026-04-30 22:13 | 35.60422 | 139.88368 | 1327 ft | 164 kts | 265° |
| 2026-04-30 22:13 | 35.60414 | 139.86992 | 1071 ft | 160 kts | 267° |
| 2026-04-30 22:13 | 35.60407 | 139.85637 | 1007 ft | 161 kts | 270° |
| 2026-04-30 22:13 | 35.60466 | 139.84265 | 957 ft | 158 kts | 271° |
| 2026-04-30 22:14 | 35.60423 | 139.82898 | 888 ft | 157 kts | 258° |
| 2026-04-30 22:14 | 35.60061 | 139.81638 | 763 ft | 159 kts | 240° |
| 2026-04-30 22:14 | 35.59480 | 139.80512 | 588 ft | 153 kts | 237° |
| 2026-04-30 22:14 | 35.58793 | 139.79511 | 484 ft | 157 kts | 221° |
| 2026-04-30 22:15 | 35.57901 | 139.78720 | 345 ft | 159 kts | 214° |
| 2026-04-30 22:15 | 35.56995 | 139.77937 | 114 ft | 159 kts | 217° |
| 2026-04-30 22:15 | 35.56127 | 139.77188 | 28 ft | 139 kts | 217° |
| 2026-04-30 22:15 | 35.55459 | 139.76605 | 29 ft | 93 kts | 215° |
| 2026-04-30 22:16 | 35.55082 | 139.76283 | 29 ft | 29 kts | 216° |
| 2026-04-30 22:16 | 35.54951 | 139.76283 | 28 ft | 19 kts | 124° |
| 2026-04-30 22:17 | 35.54896 | 139.76570 | 33 ft | 12 kts | 58° |